createdAt,value
2023-02-27T00:02:08.379Z,7.18
2023-02-27T00:04:35.838Z,7.86
2023-02-27T00:07:02.987Z,8.47
2023-02-27T00:09:32.748Z,8.44
2023-02-27T00:12:00.184Z,8.21
2023-02-27T00:14:27.424Z,8.84
2023-02-27T00:16:54.547Z,8.86
2023-02-27T00:19:21.989Z,7.51
2023-02-27T00:21:49.183Z,7.35
2023-02-27T00:24:16.361Z,8.13
2023-02-27T00:26:43.829Z,6.99
2023-02-27T00:29:11.015Z,6.58
2023-02-27T00:31:38.204Z,8.04
2023-02-27T00:34:05.704Z,8.16
2023-02-27T00:36:32.932Z,7.72
2023-02-27T00:39:00.103Z,8.28
2023-02-27T00:41:27.969Z,7.05
2023-02-27T00:43:55.300Z,7.16
2023-02-27T00:46:22.482Z,7.88
2023-02-27T00:48:51.438Z,7.15
2023-02-27T00:51:20.270Z,7.32
2023-02-27T00:53:47.424Z,6.98
2023-02-27T00:56:15.322Z,6.98
2023-02-27T00:58:42.454Z,6.21
2023-02-27T01:01:09.658Z,6.03
2023-02-27T01:03:37.124Z,6.52
2023-02-27T01:06:04.506Z,6.66
2023-02-27T01:08:31.811Z,6.38
2023-02-27T01:10:59.280Z,5.39
2023-02-27T01:13:28.832Z,5.51
2023-02-27T01:15:56.051Z,6.83
2023-02-27T01:18:23.658Z,6.88
2023-02-27T01:20:53.950Z,6.77
2023-02-27T01:23:21.710Z,6.55
2023-02-27T01:25:50.099Z,7.11
2023-02-27T01:28:17.393Z,6.86
2023-02-27T01:30:44.602Z,6.11
2023-02-27T01:33:14.219Z,6.53
2023-02-27T01:35:41.372Z,5.86
2023-02-27T01:38:08.566Z,6.76
2023-02-27T01:40:39.739Z,7.53
2023-02-27T01:43:10.322Z,5.97
2023-02-27T01:45:41.553Z,7.38
2023-02-27T01:48:08.732Z,7.89
2023-02-27T01:50:36.378Z,7.58
2023-02-27T01:53:04.733Z,7.30
2023-02-27T01:55:32.738Z,8.03
2023-02-27T01:58:00.284Z,8.15
2023-02-27T02:00:27.777Z,7.86
2023-02-27T02:02:57.555Z,7.82
2023-02-27T02:05:24.704Z,8.63
2023-02-27T02:07:51.866Z,9.17
2023-02-27T02:10:19.504Z,9.21
2023-02-27T02:12:46.967Z,8.74
2023-02-27T02:15:14.195Z,8.98
2023-02-27T02:17:45.446Z,9.41
2023-02-27T02:20:37.819Z,9.61
2023-02-27T02:23:14.162Z,9.53
2023-02-27T02:25:50.767Z,9.86
2023-02-27T02:28:42.185Z,10.20
2023-02-27T02:31:28.789Z,9.61
2023-02-27T02:33:56.198Z,9.36
2023-02-27T02:36:23.701Z,9.48
2023-02-27T02:38:50.845Z,9.67
2023-02-27T02:41:20.471Z,9.53
2023-02-27T02:43:55.986Z,9.68
2023-02-27T02:46:49.758Z,8.92
2023-02-27T02:49:20.476Z,7.98
2023-02-27T02:51:55.977Z,8.17
2023-02-27T02:54:42.194Z,7.42
2023-02-27T02:57:10.911Z,7.72
2023-02-27T02:59:49.715Z,8.01
2023-02-27T03:02:27.646Z,8.71
2023-02-27T03:04:56.836Z,8.54
2023-02-27T03:07:26.215Z,8.37
2023-02-27T03:09:54.151Z,8.05
2023-02-27T03:12:22.749Z,7.45
2023-02-27T03:14:55.496Z,7.68
2023-02-27T03:17:25.272Z,7.94
2023-02-27T03:19:55.113Z,8.57
2023-02-27T03:22:24.081Z,9.15
2023-02-27T03:24:51.947Z,9.48
2023-02-27T03:27:20.026Z,8.62
2023-02-27T03:29:58.498Z,9.59
2023-02-27T03:32:31.871Z,9.19
2023-02-27T03:34:59.506Z,9.59
2023-02-27T03:37:30.059Z,9.79
2023-02-27T03:40:01.580Z,9.52
2023-02-27T03:42:31.827Z,9.13
2023-02-27T03:44:59.263Z,9.26
2023-02-27T03:47:26.459Z,8.94
2023-02-27T03:49:54.117Z,9.00
2023-02-27T03:52:21.412Z,9.17
2023-02-27T03:55:02.294Z,9.23
2023-02-27T03:57:30.284Z,8.49
2023-02-27T03:59:57.963Z,7.79
2023-02-27T04:02:25.163Z,8.36
2023-02-27T04:04:55.788Z,7.74
2023-02-27T04:07:31.905Z,8.14
2023-02-27T04:10:13.565Z,7.74
2023-02-27T04:12:40.812Z,8.37
2023-02-27T04:15:18.235Z,7.58
2023-02-27T04:18:14.876Z,6.30
2023-02-27T04:20:46.491Z,5.37
2023-02-27T04:23:24.313Z,5.88
2023-02-27T04:26:05.985Z,7.04
2023-02-27T04:28:47.812Z,6.69
2023-02-27T04:31:18.366Z,7.44
2023-02-27T04:33:45.546Z,6.74
2023-02-27T04:36:14.260Z,7.75
2023-02-27T04:38:44.584Z,7.94
2023-02-27T04:41:13.156Z,7.87
2023-02-27T04:43:40.915Z,7.97
2023-02-27T04:46:09.192Z,8.03
2023-02-27T04:48:37.832Z,8.08
2023-02-27T04:51:12.974Z,8.72
2023-02-27T04:53:47.971Z,8.05
2023-02-27T04:56:20.646Z,7.60
2023-02-27T04:58:52.981Z,7.22
2023-02-27T05:01:23.028Z,7.97
2023-02-27T05:03:51.531Z,8.26
2023-02-27T05:06:18.903Z,7.94
2023-02-27T05:08:49.018Z,8.08
2023-02-27T05:11:34.104Z,8.61
2023-02-27T05:14:08.383Z,8.69
2023-02-27T05:16:37.006Z,7.88
2023-02-27T05:19:04.173Z,8.99
2023-02-27T05:21:36.267Z,8.87
2023-02-27T05:24:09.747Z,8.74
2023-02-27T05:26:55.692Z,8.56
2023-02-27T05:29:32.370Z,8.78
2023-02-27T05:32:26.137Z,8.50
2023-02-27T05:35:12.333Z,8.83
2023-02-27T05:37:43.762Z,8.15
2023-02-27T05:40:12.520Z,8.32
2023-02-27T05:43:03.203Z,8.62
2023-02-27T05:45:32.051Z,7.49
2023-02-27T05:48:00.712Z,8.10
2023-02-27T05:50:29.530Z,8.76
2023-02-27T05:52:58.436Z,7.03
2023-02-27T05:55:58.181Z,7.75
2023-02-27T05:58:54.704Z,7.13
2023-02-27T06:01:21.886Z,8.57
2023-02-27T06:03:49.347Z,8.31
2023-02-27T06:06:17.148Z,7.96
2023-02-27T06:08:44.708Z,6.94
2023-02-27T06:11:13.275Z,8.00
2023-02-27T06:13:42.100Z,7.45
2023-02-27T06:16:10.634Z,7.39
2023-02-27T06:18:38.096Z,8.06
2023-02-27T06:21:05.376Z,8.47
2023-02-27T06:23:32.681Z,8.38
2023-02-27T06:26:00.153Z,8.01
2023-02-27T06:28:27.316Z,8.63
2023-02-27T06:30:55.099Z,8.71
2023-02-27T06:33:23.295Z,9.47
2023-02-27T06:35:50.527Z,9.39
2023-02-27T06:38:17.826Z,9.48
2023-02-27T06:40:45.342Z,8.73
2023-02-27T06:43:12.551Z,9.01
2023-02-27T06:45:39.694Z,9.16
2023-02-27T06:48:07.122Z,9.35
2023-02-27T06:50:34.316Z,9.75
2023-02-27T06:53:01.487Z,9.77
2023-02-27T06:55:28.934Z,10.27
2023-02-27T06:57:56.101Z,10.15
2023-02-27T07:00:23.421Z,10.68
2023-02-27T07:02:50.836Z,10.91
2023-02-27T07:05:18.223Z,11.05
2023-02-27T07:07:45.458Z,11.27
2023-02-27T07:10:13.471Z,11.44
2023-02-27T07:12:40.875Z,11.15
2023-02-27T07:15:08.392Z,11.40
2023-02-27T07:17:35.856Z,10.68
2023-02-27T07:20:03.286Z,11.06
2023-02-27T07:22:30.504Z,11.06
2023-02-27T07:24:57.953Z,11.13
2023-02-27T07:27:25.167Z,10.67
2023-02-27T07:29:52.845Z,9.79
2023-02-27T07:32:20.392Z,9.97
2023-02-27T07:34:47.901Z,9.73
2023-02-27T07:37:15.084Z,9.86
2023-02-27T07:39:42.546Z,9.97
2023-02-27T07:42:10.887Z,9.27
2023-02-27T07:44:40.671Z,9.37
2023-02-27T07:47:08.156Z,9.27
2023-02-27T07:49:35.289Z,9.02
2023-02-27T07:52:02.721Z,9.33
2023-02-27T07:54:30.205Z,8.96
2023-02-27T07:56:57.394Z,8.37
2023-02-27T07:59:24.542Z,8.81
2023-02-27T08:01:52.588Z,9.38
2023-02-27T08:04:20.030Z,9.52
2023-02-27T08:06:47.281Z,9.72
2023-02-27T08:09:14.441Z,8.49
2023-02-27T08:11:41.899Z,8.43
2023-02-27T08:14:09.078Z,9.75
2023-02-27T08:16:36.495Z,9.57
2023-02-27T08:19:04.110Z,9.42
2023-02-27T08:21:31.430Z,9.53
2023-02-27T08:23:58.657Z,8.27
2023-02-27T08:26:26.654Z,8.47
2023-02-27T08:28:54.070Z,8.36
2023-02-27T08:31:21.320Z,8.78
2023-02-27T08:33:55.299Z,8.93
2023-02-27T08:36:25.661Z,8.87
2023-02-27T08:38:53.420Z,8.64
2023-02-27T08:41:20.614Z,8.73
2023-02-27T08:43:47.765Z,9.01
2023-02-27T08:46:15.676Z,8.72
2023-02-27T08:48:43.200Z,8.72
2023-02-27T08:51:10.355Z,8.77
2023-02-27T08:53:38.641Z,8.08
2023-02-27T08:56:06.094Z,8.51
2023-02-27T08:58:33.301Z,9.09
2023-02-27T09:01:00.914Z,9.13
2023-02-27T09:03:28.904Z,8.95
2023-02-27T09:05:56.271Z,9.63
2023-02-27T09:08:23.788Z,9.33
2023-02-27T09:10:50.976Z,8.78
2023-02-27T09:13:18.372Z,8.55
2023-02-27T09:15:47.218Z,8.40
2023-02-27T09:18:14.647Z,8.27
2023-02-27T09:20:43.064Z,8.02
2023-02-27T09:23:10.630Z,8.87
2023-02-27T09:25:37.794Z,8.09
2023-02-27T09:28:05.033Z,8.42
2023-02-27T09:30:33.312Z,8.33
2023-02-27T09:33:00.508Z,8.36
2023-02-27T09:35:27.755Z,8.90
2023-02-27T09:37:56.899Z,8.68
2023-02-27T09:40:25.342Z,8.94
2023-02-27T09:42:53.516Z,8.54
2023-02-27T09:45:23.407Z,8.79
2023-02-27T09:48:00.887Z,9.85
2023-02-27T09:50:32.803Z,9.97
2023-02-27T09:53:00.998Z,10.23
2023-02-27T09:55:30.479Z,10.12
2023-02-27T09:58:16.336Z,8.75
2023-02-27T10:00:51.570Z,9.46
2023-02-27T10:03:31.266Z,8.43
2023-02-27T10:06:06.248Z,8.83
2023-02-27T10:08:40.766Z,8.64
2023-02-27T10:11:08.588Z,9.02
2023-02-27T10:13:42.100Z,8.31
2023-02-27T10:16:10.044Z,8.45
2023-02-27T10:18:58.015Z,9.58
2023-02-27T10:21:30.823Z,9.21
2023-02-27T10:24:01.644Z,8.74
2023-02-27T10:26:33.609Z,8.57
2023-02-27T10:29:03.064Z,9.75
2023-02-27T10:31:31.763Z,10.18
2023-02-27T10:33:59.002Z,9.21
2023-02-27T10:36:34.017Z,8.83
2023-02-27T10:39:03.674Z,9.40
2023-02-27T10:41:31.142Z,9.67
2023-02-27T10:43:58.571Z,9.79
2023-02-27T10:46:26.754Z,9.58
2023-02-27T10:48:55.436Z,9.91
2023-02-27T10:51:26.979Z,9.09
2023-02-27T10:54:14.316Z,9.19
2023-02-27T10:56:41.625Z,9.62
2023-02-27T10:59:17.150Z,10.00
2023-02-27T11:01:45.346Z,10.27
2023-02-27T11:04:13.081Z,9.87
2023-02-27T11:06:40.542Z,9.69
2023-02-27T11:09:21.012Z,9.95
2023-02-27T11:11:48.991Z,9.64
2023-02-27T11:14:19.165Z,9.93
2023-02-27T11:16:50.735Z,9.50
2023-02-27T11:19:44.578Z,9.15
2023-02-27T11:22:15.675Z,10.06
2023-02-27T11:24:43.163Z,9.02
2023-02-27T11:27:26.515Z,9.54
2023-02-27T11:29:58.846Z,9.47
2023-02-27T11:32:45.198Z,10.10
2023-02-27T11:35:21.893Z,8.50
2023-02-27T11:37:49.949Z,9.28
2023-02-27T11:40:19.425Z,10.13
2023-02-27T11:42:50.282Z,10.43
2023-02-27T11:46:14.465Z,10.20
2023-02-27T11:48:11.890Z,10.67
2023-02-27T11:50:45.638Z,10.02
2023-02-27T11:53:31.455Z,10.51
2023-02-27T11:55:59.604Z,10.14
2023-02-27T11:58:27.910Z,11.58
2023-02-27T12:01:00.339Z,10.88
2023-02-27T12:03:30.897Z,10.20
2023-02-27T12:05:59.129Z,11.18
2023-02-27T12:08:36.892Z,11.59
2023-02-27T12:11:15.174Z,11.26
2023-02-27T12:13:44.023Z,11.08
2023-02-27T12:16:19.473Z,10.46
2023-02-27T12:18:49.790Z,10.60
2023-02-27T12:21:17.234Z,9.39
2023-02-27T12:24:10.924Z,9.96
2023-02-27T12:26:39.938Z,10.41
2023-02-27T12:29:09.819Z,10.04
2023-02-27T12:31:37.018Z,10.73
2023-02-27T12:34:19.458Z,10.70
2023-02-27T12:36:48.101Z,10.82
2023-02-27T12:39:17.152Z,11.13
2023-02-27T12:41:50.003Z,10.82
2023-02-27T12:44:24.364Z,10.30
2023-02-27T12:47:13.501Z,9.54
2023-02-27T12:49:44.122Z,9.36
2023-02-27T12:52:20.325Z,10.22
2023-02-27T12:54:56.215Z,9.97
2023-02-27T12:57:28.489Z,10.31
2023-02-27T13:00:11.263Z,11.01
2023-02-27T13:02:41.500Z,11.00
2023-02-27T13:05:08.925Z,11.21
2023-02-27T13:07:43.067Z,9.66
2023-02-27T13:10:16.740Z,10.08
2023-02-27T13:13:01.372Z,10.34
2023-02-27T13:15:34.362Z,9.80
2023-02-27T13:18:02.453Z,10.49
2023-02-27T13:20:30.133Z,10.21
2023-02-27T13:23:00.333Z,9.59
2023-02-27T13:25:27.474Z,9.38
2023-02-27T13:27:55.959Z,9.10
2023-02-27T13:30:24.721Z,10.03
2023-02-27T13:33:10.870Z,9.88
2023-02-27T13:35:58.663Z,10.15
2023-02-27T13:38:41.947Z,10.10
2023-02-27T13:41:21.444Z,10.01
2023-02-27T13:43:52.407Z,10.02
2023-02-27T13:46:29.635Z,10.32
2023-02-27T13:49:05.698Z,10.12
2023-02-27T13:51:35.986Z,9.99
2023-02-27T13:54:15.738Z,9.88
2023-02-27T13:56:53.153Z,10.47
2023-02-27T13:59:23.852Z,11.16
2023-02-27T14:01:52.101Z,10.75
2023-02-27T14:04:20.004Z,11.64
2023-02-27T14:06:47.445Z,11.67
2023-02-27T14:09:18.624Z,11.37
2023-02-27T14:11:53.601Z,10.76
2023-02-27T14:14:40.142Z,11.37
2023-02-27T14:17:09.514Z,11.00
2023-02-27T14:19:42.666Z,11.32
2023-02-27T14:22:12.939Z,11.65
2023-02-27T14:24:49.763Z,11.93
2023-02-27T14:27:23.836Z,11.76
2023-02-27T14:29:51.632Z,11.13
2023-02-27T14:32:22.535Z,11.86
2023-02-27T14:34:50.860Z,11.27
2023-02-27T14:37:21.157Z,12.09
2023-02-27T14:39:49.280Z,11.51
2023-02-27T14:42:23.893Z,11.68
2023-02-27T14:44:51.046Z,11.38
2023-02-27T14:47:19.890Z,11.22
2023-02-27T14:49:47.499Z,10.71
2023-02-27T14:52:18.888Z,12.02
2023-02-27T14:54:48.421Z,10.88
2023-02-27T14:57:16.840Z,11.41
2023-02-27T14:59:45.182Z,11.55
2023-02-27T15:02:15.420Z,11.83
2023-02-27T15:04:42.761Z,11.14
2023-02-27T15:07:13.165Z,11.27
2023-02-27T15:09:43.123Z,11.43
2023-02-27T15:12:10.870Z,11.65
2023-02-27T15:14:38.903Z,12.12
2023-02-27T15:17:22.821Z,12.17
2023-02-27T15:19:51.314Z,12.28
2023-02-27T15:22:38.059Z,12.39
2023-02-27T15:25:07.866Z,12.62
2023-02-27T15:27:37.153Z,12.04
2023-02-27T15:30:04.720Z,12.71
2023-02-27T15:32:33.075Z,12.58
2023-02-27T15:35:01.709Z,13.32
2023-02-27T15:37:30.167Z,12.77
2023-02-27T15:39:57.633Z,13.10
2023-02-27T15:42:26.455Z,13.19
2023-02-27T15:44:53.704Z,13.06
2023-02-27T15:47:25.152Z,12.76
2023-02-27T15:49:54.922Z,12.79
2023-02-27T15:52:23.176Z,12.83
2023-02-27T15:54:54.952Z,12.96
2023-02-27T15:57:22.503Z,13.22
2023-02-27T15:59:49.779Z,12.59
2023-02-27T16:02:21.864Z,12.76
2023-02-27T16:04:49.642Z,12.83
2023-02-27T16:07:20.445Z,13.12
2023-02-27T16:09:51.953Z,12.93
2023-02-27T16:12:25.651Z,13.05
2023-02-27T16:14:53.088Z,12.77
2023-02-27T16:17:30.784Z,12.45
2023-02-27T16:20:01.676Z,12.69
2023-02-27T16:22:30.580Z,12.75
2023-02-27T16:25:07.548Z,12.40
2023-02-27T16:27:35.558Z,12.44
2023-02-27T16:30:05.734Z,12.65
2023-02-27T16:32:44.172Z,12.80
2023-02-27T16:35:16.800Z,12.76
2023-02-27T16:37:46.299Z,12.82
2023-02-27T16:40:21.747Z,12.63
2023-02-27T16:42:49.740Z,12.40
2023-02-27T16:45:18.874Z,12.48
2023-02-27T16:47:51.190Z,12.61
2023-02-27T16:50:20.130Z,12.49
2023-02-27T16:52:47.586Z,12.34
2023-02-27T16:55:15.603Z,12.43
2023-02-27T16:57:46.364Z,12.64
2023-02-27T17:00:14.767Z,12.54
2023-02-27T17:02:43.380Z,12.42
2023-02-27T17:05:11.776Z,12.44
2023-02-27T17:07:40.968Z,12.10
2023-02-27T17:10:09.573Z,12.21
2023-02-27T17:12:37.964Z,12.31
2023-02-27T17:15:05.873Z,12.25
2023-02-27T17:17:33.696Z,12.55
2023-02-27T17:20:02.396Z,12.42
2023-02-27T17:22:30.832Z,12.34
2023-02-27T17:24:59.905Z,12.40
2023-02-27T17:27:28.030Z,12.29
2023-02-27T17:29:56.017Z,12.30
2023-02-27T17:32:24.224Z,12.55
2023-02-27T17:34:55.577Z,12.46
2023-02-27T17:37:23.710Z,12.53
2023-02-27T17:39:51.707Z,11.99
2023-02-27T17:42:20.392Z,12.16
2023-02-27T17:44:48.654Z,12.38
2023-02-27T17:47:16.750Z,12.55
2023-02-27T17:49:45.400Z,12.14
2023-02-27T17:52:13.709Z,12.40
2023-02-27T17:54:41.838Z,12.56
2023-02-27T17:57:12.007Z,12.53
2023-02-27T17:59:41.632Z,12.58
2023-02-27T18:02:13.959Z,12.61
2023-02-27T18:04:46.065Z,12.49
2023-02-27T18:07:14.162Z,12.61
2023-02-27T18:09:42.867Z,12.53
2023-02-27T18:12:10.732Z,12.54
2023-02-27T18:14:40.304Z,12.37
2023-02-27T18:17:13.062Z,12.30
2023-02-27T18:19:44.278Z,12.04
2023-02-27T18:22:15.868Z,12.39
2023-02-27T18:24:43.966Z,12.27
2023-02-27T18:27:16.122Z,12.07
2023-02-27T18:29:44.760Z,11.93
2023-02-27T18:32:14.546Z,11.68
2023-02-27T18:34:43.980Z,11.68
2023-02-27T18:37:15.995Z,11.35
2023-02-27T18:39:45.136Z,11.44
2023-02-27T18:42:14.267Z,11.45
2023-02-27T18:44:43.446Z,11.64
2023-02-27T18:47:13.493Z,11.39
2023-02-27T18:49:42.569Z,11.11
2023-02-27T18:52:11.049Z,10.28
2023-02-27T18:54:41.439Z,9.31
2023-02-27T18:57:10.951Z,9.05
2023-02-27T18:59:41.999Z,9.49
2023-02-27T19:02:14.887Z,8.78
2023-02-27T19:04:44.573Z,8.84
2023-02-27T19:07:13.428Z,9.08
2023-02-27T19:09:45.215Z,6.82
2023-02-27T19:12:14.110Z,7.78
2023-02-27T19:14:42.954Z,8.18
2023-02-27T19:17:11.683Z,7.92
2023-02-27T19:19:42.790Z,6.82
2023-02-27T19:22:11.372Z,7.53
2023-02-27T19:24:40.770Z,7.96
2023-02-27T19:27:12.782Z,8.05
2023-02-27T19:29:42.024Z,6.75
2023-02-27T19:32:10.867Z,5.98
2023-02-27T19:34:39.348Z,5.46
2023-02-27T19:37:09.099Z,6.80
2023-02-27T19:39:40.047Z,5.78
2023-02-27T19:42:10.150Z,5.65
2023-02-27T19:44:41.558Z,5.95
2023-02-27T19:47:13.549Z,5.60
2023-02-27T19:49:42.447Z,5.65
2023-02-27T19:52:11.582Z,6.06
2023-02-27T19:54:40.463Z,5.91
2023-02-27T19:57:14.096Z,6.87
2023-02-27T19:59:43.420Z,6.83
2023-02-27T20:02:12.278Z,6.50
2023-02-27T20:04:42.412Z,7.54
2023-02-27T20:07:11.481Z,6.43
2023-02-27T20:09:40.452Z,5.93
2023-02-27T20:12:11.690Z,6.23
2023-02-27T20:14:40.269Z,6.45
2023-02-27T20:17:09.069Z,6.19
2023-02-27T20:19:38.486Z,6.45
2023-02-27T20:22:06.605Z,5.66
2023-02-27T20:24:34.920Z,5.56
2023-02-27T20:27:04.589Z,4.44
2023-02-27T20:29:33.080Z,5.09
2023-02-27T20:32:04.511Z,5.08
2023-02-27T20:34:33.193Z,5.03
2023-02-27T20:37:01.920Z,4.45
2023-02-27T20:39:30.591Z,4.29
2023-02-27T20:41:59.035Z,5.76
2023-02-27T20:44:28.138Z,4.91
2023-02-27T20:46:57.600Z,5.01
2023-02-27T20:49:26.568Z,5.47
2023-02-27T20:51:55.624Z,5.26
2023-02-27T20:54:24.797Z,5.72
2023-02-27T20:56:53.431Z,5.79
2023-02-27T20:59:22.957Z,6.29
2023-02-27T21:01:53.968Z,6.86
2023-02-27T21:04:24.602Z,7.61
2023-02-27T21:06:52.187Z,6.42
2023-02-27T21:09:19.923Z,5.96
2023-02-27T21:11:48.319Z,6.60
2023-02-27T21:14:16.024Z,5.94
2023-02-27T21:16:43.398Z,6.50
2023-02-27T21:19:11.613Z,6.88
2023-02-27T21:21:39.318Z,7.74
2023-02-27T21:24:09.250Z,7.99
2023-02-27T21:26:38.931Z,8.01
2023-02-27T21:29:13.226Z,8.53
2023-02-27T21:31:41.595Z,7.33
2023-02-27T21:34:11.564Z,8.02
2023-02-27T21:36:42.936Z,8.38
2023-02-27T21:39:14.954Z,8.75
2023-02-27T21:41:42.374Z,9.07
2023-02-27T21:44:11.224Z,9.30
2023-02-27T21:46:38.868Z,9.29
2023-02-27T21:49:06.123Z,9.44
2023-02-27T21:51:40.614Z,9.53
2023-02-27T21:54:09.767Z,8.53
2023-02-27T21:56:36.941Z,8.42
2023-02-27T21:59:04.310Z,7.63
2023-02-27T22:01:32.681Z,7.63
2023-02-27T22:04:01.922Z,7.18
2023-02-27T22:06:31.406Z,7.00
2023-02-27T22:08:59.547Z,7.76
2023-02-27T22:11:27.939Z,7.71
2023-02-27T22:13:55.321Z,7.39
2023-02-27T22:16:22.484Z,6.29
2023-02-27T22:18:52.477Z,5.85
2023-02-27T22:21:21.506Z,6.30
2023-02-27T22:23:48.814Z,7.21
2023-02-27T22:26:17.421Z,5.93
2023-02-27T22:28:44.758Z,5.80
2023-02-27T22:31:17.354Z,6.15
2023-02-27T22:33:46.110Z,6.95
2023-02-27T22:36:18.817Z,6.22
2023-02-27T22:38:46.691Z,6.90
2023-02-27T22:41:34.119Z,7.86
2023-02-27T22:44:01.788Z,8.40
2023-02-27T22:46:30.499Z,8.62
2023-02-27T22:49:01.913Z,9.03
2023-02-27T22:51:29.918Z,9.24
2023-02-27T22:53:57.847Z,9.59
2023-02-27T22:56:25.026Z,9.27
2023-02-27T22:58:52.660Z,9.60
2023-02-27T23:01:20.547Z,9.60
2023-02-27T23:03:48.599Z,9.24
2023-02-27T23:06:17.021Z,9.05
2023-02-27T23:08:44.562Z,9.62
2023-02-27T23:11:12.875Z,9.40
2023-02-27T23:13:40.455Z,9.42
2023-02-27T23:16:11.719Z,8.98
2023-02-27T23:18:48.341Z,8.74
2023-02-27T23:21:16.525Z,9.06
2023-02-27T23:23:43.820Z,8.16
2023-02-27T23:26:11.098Z,8.61
2023-02-27T23:28:38.590Z,8.60
2023-02-27T23:31:06.199Z,9.18
2023-02-27T23:33:33.486Z,8.72
2023-02-27T23:36:01.517Z,8.64
2023-02-27T23:38:28.936Z,7.57
2023-02-27T23:40:56.311Z,8.30
2023-02-27T23:43:23.853Z,9.06
2023-02-27T23:45:51.050Z,8.67
2023-02-27T23:48:18.242Z,8.58
2023-02-27T23:50:45.765Z,8.85
2023-02-27T23:53:16.212Z,9.02
2023-02-27T23:55:43.879Z,9.81
2023-02-27T23:58:11.328Z,10.00
